NWS Home NWS Lubbock West Texas Mesonet                      Daily Summary For 01/25/2021

Latest   N   C   S   Daily Sum   3hrΔ   24hrΔ   Soil Data 
Site Map   24hr Precip   72hr Precip   Google Plot


Station Time of Last Max Temp Min Temp Max/Min Dew Pt. Max/Min RH 10m Avg Wind 2m Avg Wind Peak Gust @ 33ft (mph) Potential Evapotranspiration
mm/day or in/day
Rain Sum Solar Rad
MJ/m^2
% Clear Day Red Flag
Abernathy 5ENE 11:59 PM 53 50 41 /40 23 / 22 16.2  (SW) 12.5 41.7 mph 263° @ 1144 AM 2 or 0.08 0.01 15.8 116.5 0
Adrian 6WSW 11:59 PM 53 50 41 /40 23 / 22 16.1  (SE) 12.6 36 mph 253° @ 0518 PM 2 or 0.08 0.01 15.3 117.5 0
Aiken 3WSW 11:59 PM 53 50 41 /40 23 / 22 15.5  (E) 11.7 40.6 mph 259° @ 1236 PM 2 or 0.08 0.02 16.5 122.4 0
Amarillo 15NNW 11:59 PM 53 50 41 /40 23 / 22 10.4  (NE) 7.2 28.7 mph 293° @ 1054 AM 1.3 or 0.05 0.06 14.5 113.1 0
Amarillo 7SSE 11:59 PM 53 50 41 /40 23 / 22 10.6  (NW) 7.2 31.4 mph 265° @ 1050 AM 1.3 or 0.05 0.07 13.7 105.4 0
Amarillo 9NNE 11:59 PM 53 50 41 /40 23 / 22 9.3  (N) 7.2 32.1 mph 293° @ 1047 AM 1.3 or 0.05 0.10 15.5 120.3 0
Amherst 1NE 11:55 PM 53 50 41 /40 23 / 22 15.2  (W) 11.2 39.9 mph 257° @ 1105 AM 2 or 0.08 0.00 15.5 114.4 0
Andrews 2E 11:59 PM 53 50 41 /40 23 / 22 12.8  (W) 8.4 39.5 mph 253° @ 0246 PM 2.5 or 0.1 0.00 16.3 114.3 0
Anton 6SSW 11:55 PM 53 50 41 /40 23 / 22 15.5  (W) 12 38.1 mph 253° @ 1140 AM 1.8 or 0.07 0.00 15.5 113.7 0
Aspermont 3NE 11:55 PM 53 50 41 /40 23 / 22 12.1  (NW) 8.6 36.6 mph 263° @ 0240 PM 2.5 or 0.1 0.06 15.4 112.5 0
Big Bend NP - Castolon 11:59 PM 53 50 41 /40 23 / 22 7.6  (W) 5.8 25.5 mph 327° @ 0201 PM 3 or 0.12 0.00 18.2 116.4 0
Big Bend NP - Persimmon Gap 11:59 PM 53 50 41 /40 23 / 22 8.4  (S) 6.4 25.9 mph 250° @ 0433 PM 2.8 or 0.11 0.00 17.8 115 0
Big Lake 1WNW 11:59 PM 53 50 41 /40 23 / 22 15.8  (S) 12.5 40.2 mph 284° @ 1005 AM 3.3 or 0.13 0.00 17.9 121.1 0
Bootleg 11WNW 11:59 PM 53 50 41 /40 23 / 22 18.7  (SE) 14.3 36.8 mph 261° @ 0416 PM 2 or 0.08 0.00 13.3 100.4 0
Borger 7E 11:59 PM 53 50 41 /40 23 / 22 10.8  (N) 7 30.7 mph 319° @ 1250 PM 1 or 0.04 0.15 16.3 128.3 0
Boys Ranch 1WSW 11:59 PM 53 50 41 /40 23 / 22 7.5  (S) 6 28.3 mph 246° @ 0656 AM 1.3 or 0.05 0.11 14.9 116.7 0
Brownfield 2S 11:59 PM 53 50 41 /40 23 / 22 14  (NW) 10.6 37.3 mph 249° @ 1238 PM 2 or 0.08 0.01 15.9 114.5 0
Canadian 6E 11:59 PM 53 50 41 /40 23 / 22 9.8  (N) 6.6 27.1 mph 307° @ 0236 PM 0.8 or 0.03 0.13 7.9 63.2 0
Caprock Canyons State Park 11:59 PM 53 50 41 /40 23 / 22 14.5  (NE) 10.9 40.6 mph 283° @ 1036 AM 2 or 0.08 0.02 16 121 0
Childress 2NNE 11:55 PM 53 50 41 /40 23 / 22 12.3  (N) 8.4 29.8 mph 250° @ 1045 AM 2 or 0.08 0.25 15.1 114.6 0
Clarendon 2WSW 11:55 PM 53 50 41 /40 23 / 22 11.1  (E) 7.9 29.3 mph 267° @ 0125 AM 1.3 or 0.05 0.11 14.8 113.5 0
Claude 12SW 11:59 PM 53 50 41 /40 23 / 22 11.1  (NW) 8 34.6 mph 259° @ 1019 AM 1.3 or 0.05 0.09 15.5 118.7 0
Clyde 2WNW 11:59 PM 53 50 41 /40 23 / 22 12.4  (S) 9.3 41.4 mph 303° @ 0219 AM 2.5 or 0.1 0.08 16.3 115.6 0
Colorado City 5NW 11:59 PM 53 50 41 /40 23 / 22 11.7  (N) 7.5 37.3 mph 295° @ 1246 AM 2.5 or 0.1 0.03 16 113.5 0
Comanche Springs 11:59 PM 53 50 41 /40 23 / 22 8.6  (NW) 6.1 35.1 mph 263° @ 0247 PM 1.8 or 0.07 0.37 16.3 122.6 0
Coyanosa 2N 11:59 PM 53 50 41 /40 23 / 22 14.5  (W) 10.3 35.4 mph 287° @ 0106 AM 3.3 or 0.13 0.00 17.2 117.2 0
Crane 1NNW 11:59 PM 53 50 41 /40 23 / 22 16.4  (NW) 13.9 43.1 mph 290° @ 1111 AM 3.3 or 0.13 0.00 17.8 121.6 0
Crowell 1E 11:59 PM 53 50 41 /40 23 / 22 11.2  (NW) 9 33 mph 244° @ 0220 PM 2 or 0.08 0.27 15.6 117 0
Dell City 11:59 PM 53 50 41 /40 23 / 22 12.3  (W) 8.7 38.7 mph 260° @ 0119 PM 2.3 or 0.09 0.00 15.7 108.3 0
Denver City 7WNW 11:55 PM 53 50 41 /40 23 / 22 16.6  (W) 12.5 37 mph 250° @ 0315 PM 2.3 or 0.09 0.00 16.9 120.5 0
Dimmitt 2NE 11:55 PM 53 50 41 /40 23 / 22 16.6  (W) 13.7 39.7 mph 261° @ 1130 AM 2 or 0.08 0.02 15.3 115 0
Doole 3WNW 11:59 PM 53 50 41 /40 23 / 22 13.7  (SW) 10.6 39.2 mph 298° @ 0318 AM 2.8 or 0.11 0.04 17.3 119.3 0
Dora NM 2SW 11:55 PM 53 50 41 /40 23 / 22 17.8  (SW) 14 42.2 mph 257° @ 1100 AM 2.3 or 0.09 0.00 13.8 100.9 0
Dozier 3W 11:59 PM 53 50 41 /40 23 / 22 8.9  (N) 6.3 26.1 mph 276° @ 0105 PM 1.3 or 0.05 0.17 14.7 114.1 0
Earth 9WSW 11:59 PM 53 50 41 /40 23 / 22 16.3  (NW) 13.2 40 mph 246° @ 0412 PM 2.3 or 0.09 0.00 15.5 114.8 0
Endee NM 2SW 11:59 PM 53 50 41 /40 23 / 22 16.9  (S) 12.9 38 mph 251° @ 0907 AM 2 or 0.08 0.01 14.7 112.6 0
Estelline 3SSE 11:59 PM 53 50 41 /40 23 / 22 10.1  (N) 6.5 28.6 mph 248° @ 0109 PM 1.8 or 0.07 0.19 14.8 113 0
Floydada 2NNE 11:55 PM 53 50 41 /40 23 / 22 15.1  (NE) 10.7 42.2 mph 256° @ 1230 PM 2 or 0.08 0.05 15.6 115.7 0
Fluvanna 3WNW 11:55 PM 53 50 41 /40 23 / 22 15  (NW) 11.7 36.8 mph 238° @ 0250 PM 2.5 or 0.1 0.02 15.7 112.1 0
Fort Chadbourne 11:59 PM 53 50 41 /40 23 / 22 8.8  (S) 6.5 42.2 mph 304° @ 0147 AM 2.3 or 0.09 0.00 16.1 113 0
Fort Lancaster 11:59 PM 53 50 41 /40 23 / 22 9.6  (SW) 6.1 33.5 mph 282° @ 1116 AM 2.5 or 0.1 0.00 17 114.1 0
Fort Lewis CO 11:59 PM 53 50 41 /40 23 / 22 7.5  (W) 4.2 20.3 mph 77° @ 1136 PM 0.5 or 0.02 0.28 12.6 102 0
Fort McKavett 11:59 PM 53 50 41 /40 23 / 22 9.4  (SW) 4.9 34 mph 293° @ 1105 AM 2.5 or 0.1 0.00 17.3 116.5 0
Friona 2NE 11:55 PM 53 50 41 /40 23 / 22 17  (S) 13.5 40.3 mph 254° @ 0435 PM 2 or 0.08 0.01 15.9 119.8 0
Fritch 1WNW 11:59 PM 53 50 41 /40 23 / 22 9.1  (NE) 7.2 22.4 mph 264° @ 1006 AM 1 or 0.04 0.08 14.4 113 0
Gail 2ESE 11:59 PM 53 50 41 /40 23 / 22 13.3  (NW) 8.7 36.2 mph 263° @ 0456 PM 2.8 or 0.11 0.03 16.2 115.7 0
Goodlett 3W 11:55 PM 53 50 41 /40 23 / 22 12  (NW) 9.2 32.7 mph 257° @ 0210 PM 1.8 or 0.07 0.20 16 121.7 0
Goodnight 11:59 PM 53 50 41 /40 23 / 22 11.2  (E) 7.9 31.5 mph 269° @ 1140 AM 1.3 or 0.05 0.08 14.7 112.6 0
Graham 5SSW 11:59 PM 53 50 41 /40 23 / 22 14.2  (SE) 10.3 40.6 mph 246° @ 0231 PM 2.3 or 0.09 0.03 16.6 119.6 0
Guadalupe Mtns Natl Park 11:59 PM 53 50 41 /40 23 / 22 14.2  (W) 10.4 65.8 mph 307° @ 1244 AM 2 or 0.08 0.00 11.9 80.9 0
Guthrie 10WSW 11:55 PM 53 50 41 /40 23 / 22 12.5  (N) 7.9 38.3 mph 233° @ 0335 PM 2.3 or 0.09 0.11 3.2 117.4 0
Hackberry 2SSE 11:59 PM 53 50 41 /40 23 / 22 13.9  (N) 10.9 38.3 mph 254° @ 0343 PM 2.3 or 0.09 0.24 17 126.9 0
Happy 1E 11:59 PM 53 50 41 /40 23 / 22 13.1  (NW) 11.1 34 mph 265° @ 1052 AM 1.8 or 0.07 0.08 15.6 118.1 0
Hart 3N 11:55 PM 53 50 41 /40 23 / 22 14.9  (W) 11.3 40.6 mph 264° @ 1210 PM 1.8 or 0.07 0.03 15.5 116.3 0
Haskell 1NW 11:55 PM 53 50 41 /40 23 / 22 13.1  (NW) 10.5 30.7 mph 252° @ 0450 PM 2.5 or 0.1 0.01 15.1 110.3 0
Hefner 1SW 11:59 PM 53 50 41 /40 23 / 22 14.7  (W) 11.2 33.1 mph 243° @ 0244 PM 2.3 or 0.09 0.10 15.8 116.4 0
Hereford 2NW 11:55 PM 53 50 41 /40 23 / 22 14.4  (NW) 11.5 35.8 mph 262° @ 0340 PM 1.8 or 0.07 0.07 15 113.8 0
Hobbs NM 5NW 11:59 PM 53 50 41 /40 23 / 22 15.3  (W) 11 36.7 mph 260° @ 0127 PM 2.5 or 0.1 0.00 16.8 118.8 0
Jayton 1SSE 11:55 PM 53 50 41 /40 23 / 22 11.5  (N) 9.2 35.9 mph 264° @ 0345 PM 2.3 or 0.09 0.02 15.7 114.6 0
Junction 1SSW 11:59 PM 53 50 41 /40 23 / 22 6.1  (S) 4.7 27.2 mph 303° @ 0335 AM 2 or 0.08 0.00 15.4 102.8 0
Kent 9E 11:59 PM 53 50 41 /40 23 / 22 16.5  (W) 11.7 39.6 mph 263° @ 0353 PM 3 or 0.12 0.00 17.3 115.3 0
Knox City 3NW 11:59 PM 53 50 41 /40 23 / 22 12.7  (SW) 8.6 36.2 mph 252° @ 0143 PM M or M 0.01 15.8 116.7 0
Lake Alan Henry 1NW 11:59 PM 53 50 41 /40 23 / 22 13.5  (NE) 10.3 33.8 mph 262° @ 0250 PM 2.5 or 0.1 0.17 15.8 113.9 0
Lake McClellan 2NW 11:59 PM 53 50 41 /40 23 / 22 12.6  (NE) 9.5 31.8 mph 283° @ 1205 PM 1.3 or 0.05 0.07 15 116.3 0
Lamesa 2SE 11:55 PM 53 50 41 /40 23 / 22 14.4  (NW) 11.3 37.3 mph 254° @ 0245 PM 2 or 0.08 0.00 16.4 116.3 0
Lesley 2S 11:59 PM 53 50 41 /40 23 / 22 9.7  (SW) 6.9 33.5 mph 266° @ 1047 AM 1.8 or 0.07 0.09 15.7 120 0
Levelland 4S 11:59 PM 53 50 41 /40 23 / 22 14.6  (W) 12 36.2 mph 246° @ 0314 PM 2 or 0.08 0.00 16 116.7 0
Lomax 1SSE 11:59 PM 53 50 41 /40 23 / 22 14.4  (NW) 11.3 37.3 mph 247° @ 0249 PM 2.8 or 0.11 0.00 17 118.8 2
Lubbock 3WNW TTU 11:55 PM 53 50 41 /40 23 / 22 12.7  (W) 7.8 35.9 mph 253° @ 0210 PM 2 or 0.08 0.02 16.1 118 0
McAdoo 3NNW 11:59 PM 53 50 41 /40 23 / 22 16.3  (E) 12.6 43.8 mph 264° @ 0102 PM 1.8 or 0.07 0.26 16 117.7 0
McCamey 1SSW 11:59 PM 53 50 41 /40 23 / 22 14.1  (NW) 11.8 33.3 mph 278° @ 1021 AM 3 or 0.12 0.00 15.3 103.4 0
McLean 1E 11:55 PM 53 50 41 /40 23 / 22 12.6  (NE) 10.2 31.6 mph 284° @ 1230 PM 1.3 or 0.05 0.18 16.1 125.1 0
Memphis 1NE 11:59 PM 53 50 41 /40 23 / 22 7.7  (NE) 5.7 29.6 mph 245° @ 1053 AM 1.5 or 0.06 0.10 14.4 110.7 0
Menard 2NW 11:59 PM 53 50 41 /40 23 / 22 10.4  (SW) 7.9 38.7 mph 286° @ 1157 AM 2.5 or 0.1 0.00 15.9 107.2 0
Mertzon 3NNE 11:59 PM 53 50 41 /40 23 / 22 13.1  (SW) 9.9 38.4 mph 289° @ 1052 AM 2.8 or 0.11 0.00 17.2 117.3 0
Morton 1ENE 11:55 PM 53 50 41 /40 23 / 22 14.6  (NW) 10.7 37.2 mph 261° @ 1225 PM 2.3 or 0.09 0.00 15.4 112.4 0
Muleshoe 2SSW 11:55 PM 53 50 41 /40 23 / 22 15.2  (NW) 11.4 38.3 mph 260° @ 0150 PM 2 or 0.08 0.01 16.5 122.5 0
New Home 11:59 PM 53 50 41 /40 23 / 22 13.9  (W) 10.2 34.6 mph 260° @ 0154 PM 1.8 or 0.07 0.00 15.7 113.4 0
Northfield 1S 11:55 PM 53 50 41 /40 23 / 22 12.1  (NE) 8.3 33.4 mph 262° @ 0215 PM 2 or 0.08 0.18 15 113 0
O'Donnell 1N 11:55 PM 53 50 41 /40 23 / 22 15.2  (W) 10 36.1 mph 244° @ 0150 PM 2 or 0.08 0.02 13.9 99.3 0
Odell 4ENE 11:59 PM 53 50 41 /40 23 / 22 11.8  (NW) 8.7 33.2 mph 306° @ 1202 AM 1.8 or 0.07 0.30 14.6 111.1 0
Olton 6S 11:55 PM 53 50 41 /40 23 / 22 15  (W) 11.5 37.2 mph 258° @ 1130 AM 2 or 0.08 0.01 15.3 113.5 0
Paducah 10SW 11:55 PM 53 50 41 /40 23 / 22 14.4  (N) 10.3 37.7 mph 257° @ 0330 PM 2 or 0.08 0.28 14.5 108 0
Palo Duro 4E (JA Ranch) 11:59 PM 53 50 41 /40 23 / 22 9.6  (S) 6.3 31.3 mph 259° @ 1015 AM 1.5 or 0.06 0.05 14.2 109 0
Palo Duro Canyon SP Floor 11:59 PM 53 50 41 /40 23 / 22 6.4  (NW) 3.4 27.4 mph 296° @ 1108 AM 1.3 or 0.05 0.09 12.3 94.6 0
Palo Duro Canyon State Park Rim 11:59 PM 53 50 41 /40 23 / 22 9.2  (NW) 5.2 31.1 mph 267° @ 1005 AM 1.5 or 0.06 0.08 15 114.9 0
Palo Duro Reservoir 1NW 11:59 PM 53 50 41 /40 23 / 22 9.5  (E) 6.3 27.5 mph 312° @ 0216 PM 0.5 or 0.02 0.12 6.2 49.9 0
Pampa 2E 11:55 PM 53 50 41 /40 23 / 22 11.6  (NE) 8.4 29.2 mph 309° @ 0135 PM 1 or 0.04 0.05 13.8 107.9 0
Panhandle 1SSW 11:59 PM 53 50 41 /40 23 / 22 10.6  (NW) 7.5 33 mph 280° @ 1122 AM 1 or 0.04 0.13 14.9 115.8 0
Plains 3N 11:55 PM 53 50 41 /40 23 / 22 14.7  (W) 11.9 32.8 mph 248° @ 1120 AM 2 or 0.08 0.00 16.4 118.1 0
Plainview 1S 11:59 PM 53 50 41 /40 23 / 22 11.8  (W) 9.8 39.5 mph 257° @ 1120 AM 1.8 or 0.07 0.02 16.4 121.8 0
Post 1NE 11:59 PM 53 50 41 /40 23 / 22 14.6  (E) 10.9 38.4 mph 241° @ 0202 PM 2.5 or 0.1 0.05 15.9 115 0
Ralls 1SE 11:59 PM 53 50 41 /40 23 / 22 13.7  (NE) 10.7 44.9 mph 270° @ 1210 PM 2 or 0.08 0.04 16 117 0
Reese Center 11:59 PM 53 50 41 /40 23 / 22 15.5  (W) 12 43.8 mph 265° @ 1050 AM 2 or 0.08 0.00 15.8 115.4 0
Roaring Springs 3N 11:59 PM 53 50 41 /40 23 / 22 14.5  (N) 10.9 48.2 mph 240° @ 1229 PM 2.3 or 0.09 0.27 16.1 119.4 0
Romero 11SSW 11:59 PM 53 50 41 /40 23 / 22 9.8  (NE) 7 29.8 mph 66° @ 0746 PM 1.3 or 0.05 0.05 11.6 90.8 0
Rotan 5W 11:59 PM 53 50 41 /40 23 / 22 14.9  (NW) 11 37.2 mph 239° @ 0354 PM 2.8 or 0.11 0.05 19.5 140.3 0
San Angelo 7NW 11:55 PM 53 50 41 /40 23 / 22 12.5  (S) 10.3 40.7 mph 279° @ 1015 AM 2.8 or 0.11 0.00 16.9 116.6 0
Seagraves 1SW 11:55 PM 53 50 41 /40 23 / 22 14.1  (W) 10.1 35.4 mph 252° @ 1215 PM 2 or 0.08 0.00 14 99.5 0
Segovia 7SSW 11:59 PM 53 50 41 /40 23 / 22 8.8  (S) 6.2 29.7 mph 298° @ 0352 AM 2.5 or 0.1 0.00 16.8 111.1 0
Seminole 2NNE 11:55 PM 53 50 41 /40 23 / 22 14  (NW) 9.9 36.2 mph 245° @ 0300 PM 2.3 or 0.09 0.01 16.1 113.9 0
Seymour 3NW 11:55 PM 53 50 41 /40 23 / 22 12.9  (W) 9.7 59.8 mph 267° @ 1210 AM 2 or 0.08 0.30 13.6 100.9 0
Sierra Blanca 1SSE 11:59 PM 53 50 41 /40 23 / 22 12.6  (W) 9.2 34.7 mph 287° @ 0228 AM 2.3 or 0.09 0.00 15.1 100.5 0
Silverton 7ESE 11:55 PM 53 50 41 /40 23 / 22 16.2  (NE) 12.3 40.1 mph 260° @ 1250 PM 1.8 or 0.07 0.04 14.9 111.8 0
Slaton 2NE 11:59 PM 53 50 41 /40 23 / 22 15.2  (W) 11.5 40.6 mph 259° @ 1130 AM 2 or 0.08 0.04 16.8 122.2 0
Smyer 11:59 PM 53 50 41 /40 23 / 22 14.9  (W) 11.7 38 mph 254° @ 1113 AM 2 or 0.08 0.01 16.6 121.1 0
Snyder 3E 11:55 PM 53 50 41 /40 23 / 22 12.9  (N) 7.2 33 mph 256° @ 0345 PM 2.5 or 0.1 0.01 14.1 100.3 0
Snyder 3SSW 11:59 PM 53 50 41 /40 23 / 22 13.9  (N) 10.6 35.5 mph 244° @ 0305 PM 2.8 or 0.11 0.00 16 113.7 0
South Plains 3ENE 11:59 PM 53 50 41 /40 23 / 22 14.5  (NE) 11.1 41.1 mph 261° @ 0103 PM 1.8 or 0.07 0.03 15.6 116.6 0
Spur 1W 11:55 PM 53 50 41 /40 23 / 22 11.3  (NE) 7.7 34.9 mph 275° @ 1155 AM 2 or 0.08 0.21 16 117.1 0
St. Lawrence 5SW 11:55 PM 53 50 41 /40 23 / 22 18.3  (SW) 15.4 41.9 mph 264° @ 0330 PM 3.3 or 0.13 0.00 3.4 117.9 0
Stamford 5ESE 11:59 PM 53 50 41 /40 23 / 22 12.7  (NW) 8.7 32.2 mph 249° @ 0149 PM 2.5 or 0.1 0.04 16.3 117.7 0
Sterling City 4WSW 11:59 PM 53 50 41 /40 23 / 22 12  (S) 8.8 38.9 mph 240° @ 0336 PM 2.8 or 0.11 0.00 13.6 94.6 8
Stinnett 1NNW 11:59 PM 53 50 41 /40 23 / 22 10.3  (NE) 7.1 27.6 mph 325° @ 0122 PM 0.8 or 0.03 0.10 14 110.4 0
Stratford 4WNW 11:59 PM 53 50 41 /40 23 / 22 9.8  (N) 6.9 29.1 mph 347° @ 0236 PM 0.8 or 0.03 0.02 13 104.7 0
Sundown 8WSW 11:55 PM 53 50 41 /40 23 / 22 13.6  (NW) 9.5 33.8 mph 245° @ 0105 PM 2 or 0.08 0.00 14 100.9 0
Sweetwater 11SW 11:59 PM 53 50 41 /40 23 / 22 12.6  (SW) 9.4 32.4 mph 276° @ 1109 AM 2.5 or 0.1 0.09 17.6 124.1 0
Tahoka 3NNE 11:59 PM 53 50 41 /40 23 / 22 13  (W) 8.8 34 mph 246° @ 1223 PM 2 or 0.08 0.02 16 115.3 0
Tarzan 2WNW 11:59 PM 53 50 41 /40 23 / 22 14.4  (NW) 11.2 37.1 mph 257° @ 0210 PM 2.8 or 0.11 0.01 16.5 115.5 0
Tatum NM 2SW 11:55 PM 53 50 41 /40 23 / 22 15.4  (W) 11.2 35.4 mph 256° @ 0500 PM 2.3 or 0.09 0.00 16.7 120.1 0
Throckmorton 1SW 11:59 PM 53 50 41 /40 23 / 22 13.8  (W) 6.4 33.8 mph 264° @ 1217 PM 2.5 or 0.1 0.01 16.5 120.7 0
Truscott 2SE 11:59 PM 53 50 41 /40 23 / 22 13  (NW) 10 36.2 mph 256° @ 0336 PM 2.3 or 0.09 0.04 15.1 112.4 0
Tulia 2ENE 11:55 PM 53 50 41 /40 23 / 22 14.9  (NW) 11.9 37.3 mph 254° @ 1245 PM 1.8 or 0.07 0.03 13.5 101.9 0
Turkey 2WSW 11:55 PM 53 50 41 /40 23 / 22 13.6  (N) 10.6 41.9 mph 240° @ 0110 PM 1.8 or 0.07 0.10 13.6 102.7 0
Umbarger 3NNE 11:59 PM 53 50 41 /40 23 / 22 13.1  (N) 9.4 32.4 mph 261° @ 0453 PM 1.8 or 0.07 0.03 14.1 107.4 0
Van Horn 3ENE 11:59 PM 53 50 41 /40 23 / 22 9.7  (W) 6.2 33.8 mph 279° @ 1205 AM 2.3 or 0.09 0.00 17.9 119.6 0
Vega 4E 11:59 PM 53 50 41 /40 23 / 22 13  (E) 8.6 36.2 mph 271° @ 1111 AM 1.5 or 0.06 0.01 14.9 114.9 0
Vigo Park 11:59 PM 53 50 41 /40 23 / 22 14.5  (W) 10.7 36 mph 264° @ 1121 AM 2 or 0.08 0.02 14.3 108.2 0
Wall 2E 11:59 PM 53 50 41 /40 23 / 22 16.5  (SW) 12.8 42.8 mph 298° @ 0232 AM 3 or 0.12 0.00 16.8 114.9 0
Weinert 2NNE 11:59 PM 53 50 41 /40 23 / 22 11.9  (NW) 9.4 31.3 mph 270° @ 1041 AM 2.3 or 0.09 0.04 14.7 107.9 0
Welch 11:59 PM 53 50 41 /40 23 / 22 14.4  (NW) 10.8 33.8 mph 241° @ 1234 PM 2 or 0.08 0.00 16.6 118.7 0
White River Lake 6NW 11:59 PM 53 50 41 /40 23 / 22 14.6  (W) 11 42.7 mph 260° @ 1211 PM 2.3 or 0.09 0.22 16.7 121.9 0
Wolfforth 6SSW 11:59 PM 53 50 41 /40 23 / 22 15.4  (W) 11.7 39.5 mph 263° @ 0207 PM 2 or 0.08 0.00 16.4 119.1 0

WestTexas Mesonet Home    Site Map/Menu  National Weather Service Lubbock   Soil Data   Latest Observation Page   Previous  Date   Next Last